sensor_id;sensor_type;location;lat;lon;timestamp;P1;durP1;ratioP1;P2;durP2;ratioP2
4080;SDS011;2055;50.074;8.436;2022-08-06T00:00:54;0.60;;;0.50;;
4080;SDS011;2055;50.074;8.436;2022-08-06T00:03:19;0.40;;;0.40;;
4080;SDS011;2055;50.074;8.436;2022-08-06T00:05:45;0.43;;;0.43;;
4080;SDS011;2055;50.074;8.436;2022-08-06T00:08:11;0.60;;;0.50;;
4080;SDS011;2055;50.074;8.436;2022-08-06T00:10:36;0.40;;;0.40;;
4080;SDS011;2055;50.074;8.436;2022-08-06T00:13:02;0.60;;;0.50;;
4080;SDS011;2055;50.074;8.436;2022-08-06T00:15:28;0.40;;;0.40;;
4080;SDS011;2055;50.074;8.436;2022-08-06T00:17:54;0.60;;;0.50;;
4080;SDS011;2055;50.074;8.436;2022-08-06T00:20:19;0.40;;;0.40;;
4080;SDS011;2055;50.074;8.436;2022-08-06T00:22:45;0.40;;;0.40;;
4080;SDS011;2055;50.074;8.436;2022-08-06T00:25:10;0.70;;;0.60;;
4080;SDS011;2055;50.074;8.436;2022-08-06T00:27:37;0.40;;;0.40;;
4080;SDS011;2055;50.074;8.436;2022-08-06T00:30:06;0.60;;;0.50;;
4080;SDS011;2055;50.074;8.436;2022-08-06T00:32:32;0.40;;;0.40;;
4080;SDS011;2055;50.074;8.436;2022-08-06T00:34:58;0.40;;;0.40;;
4080;SDS011;2055;50.074;8.436;2022-08-06T00:37:23;0.40;;;0.40;;
4080;SDS011;2055;50.074;8.436;2022-08-06T00:39:49;0.53;;;0.47;;
4080;SDS011;2055;50.074;8.436;2022-08-06T00:42:14;0.60;;;0.50;;
4080;SDS011;2055;50.074;8.436;2022-08-06T00:44:40;0.40;;;0.40;;
4080;SDS011;2055;50.074;8.436;2022-08-06T00:47:06;0.40;;;0.40;;
4080;SDS011;2055;50.074;8.436;2022-08-06T00:49:31;0.60;;;0.50;;
4080;SDS011;2055;50.074;8.436;2022-08-06T00:51:57;0.40;;;0.40;;
4080;SDS011;2055;50.074;8.436;2022-08-06T00:54:22;0.60;;;0.50;;
4080;SDS011;2055;50.074;8.436;2022-08-06T00:56:48;0.53;;;0.47;;
4080;SDS011;2055;50.074;8.436;2022-08-06T00:59:14;0.40;;;0.40;;
4080;SDS011;2055;50.074;8.436;2022-08-06T01:01:40;0.53;;;0.47;;
4080;SDS011;2055;50.074;8.436;2022-08-06T01:04:05;0.40;;;0.40;;
4080;SDS011;2055;50.074;8.436;2022-08-06T01:06:31;0.40;;;0.40;;
4080;SDS011;2055;50.074;8.436;2022-08-06T01:08:56;0.40;;;0.40;;
4080;SDS011;2055;50.074;8.436;2022-08-06T01:11:22;0.60;;;0.50;;
4080;SDS011;2055;50.074;8.436;2022-08-06T01:13:48;0.40;;;0.40;;
4080;SDS011;2055;50.074;8.436;2022-08-06T01:22:03;0.50;;;0.45;;
4080;SDS011;2055;50.074;8.436;2022-08-06T01:25:46;0.45;;;0.43;;
4080;SDS011;2055;50.074;8.436;2022-08-06T01:30:16;0.50;;;0.50;;
4080;SDS011;2055;50.074;8.436;2022-08-06T01:32:48;0.70;;;0.60;;
4080;SDS011;2055;50.074;8.436;2022-08-06T01:35:20;0.60;;;0.50;;
4080;SDS011;2055;50.074;8.436;2022-08-06T01:37:58;0.40;;;0.40;;
4080;SDS011;2055;50.074;8.436;2022-08-06T01:40:29;0.40;;;0.40;;
4080;SDS011;2055;50.074;8.436;2022-08-06T01:42:58;0.82;;;0.73;;
4080;SDS011;2055;50.074;8.436;2022-08-06T01:45:27;1.35;;;0.90;;
4080;SDS011;2055;50.074;8.436;2022-08-06T01:47:56;0.40;;;0.40;;
4080;SDS011;2055;50.074;8.436;2022-08-06T01:50:27;0.40;;;0.40;;
4080;SDS011;2055;50.074;8.436;2022-08-06T01:52:57;0.40;;;0.40;;
4080;SDS011;2055;50.074;8.436;2022-08-06T01:55:33;0.40;;;0.40;;
4080;SDS011;2055;50.074;8.436;2022-08-06T01:58:04;0.40;;;0.40;;
4080;SDS011;2055;50.074;8.436;2022-08-06T02:00:32;0.40;;;0.40;;
4080;SDS011;2055;50.074;8.436;2022-08-06T02:03:01;0.40;;;0.40;;
4080;SDS011;2055;50.074;8.436;2022-08-06T02:05:43;0.40;;;0.40;;
4080;SDS011;2055;50.074;8.436;2022-08-06T02:08:10;0.90;;;0.73;;
4080;SDS011;2055;50.074;8.436;2022-08-06T02:10:40;0.45;;;0.43;;
4080;SDS011;2055;50.074;8.436;2022-08-06T02:13:07;0.40;;;0.40;;
4080;SDS011;2055;50.074;8.436;2022-08-06T02:15:35;0.50;;;0.40;;
4080;SDS011;2055;50.074;8.436;2022-08-06T02:18:02;0.50;;;0.50;;
4080;SDS011;2055;50.074;8.436;2022-08-06T02:20:36;0.40;;;0.40;;
4080;SDS011;2055;50.074;8.436;2022-08-06T02:23:06;0.50;;;0.45;;
4080;SDS011;2055;50.074;8.436;2022-08-06T02:25:36;0.40;;;0.40;;
4080;SDS011;2055;50.074;8.436;2022-08-06T02:28:04;0.77;;;0.60;;
4080;SDS011;2055;50.074;8.436;2022-08-06T02:30:36;0.70;;;0.50;;
4080;SDS011;2055;50.074;8.436;2022-08-06T02:33:04;0.40;;;0.40;;
4080;SDS011;2055;50.074;8.436;2022-08-06T02:35:32;0.98;;;0.88;;
4080;SDS011;2055;50.074;8.436;2022-08-06T02:38:19;0.80;;;0.60;;
4080;SDS011;2055;50.074;8.436;2022-08-06T02:40:53;0.40;;;0.40;;
4080;SDS011;2055;50.074;8.436;2022-08-06T02:43:22;0.40;;;0.40;;
4080;SDS011;2055;50.074;8.436;2022-08-06T02:46:03;0.40;;;0.40;;
4080;SDS011;2055;50.074;8.436;2022-08-06T02:48:35;0.60;;;0.50;;
4080;SDS011;2055;50.074;8.436;2022-08-06T02:51:11;1.20;;;0.68;;
4080;SDS011;2055;50.074;8.436;2022-08-06T02:53:43;0.60;;;0.50;;
4080;SDS011;2055;50.074;8.436;2022-08-06T02:56:17;0.50;;;0.50;;
4080;SDS011;2055;50.074;8.436;2022-08-06T02:58:44;0.60;;;0.50;;
4080;SDS011;2055;50.074;8.436;2022-08-06T03:01:14;0.60;;;0.50;;
4080;SDS011;2055;50.074;8.436;2022-08-06T03:03:44;0.98;;;0.88;;
4080;SDS011;2055;50.074;8.436;2022-08-06T03:06:12;0.60;;;0.50;;
4080;SDS011;2055;50.074;8.436;2022-08-06T03:08:40;1.20;;;1.02;;
4080;SDS011;2055;50.074;8.436;2022-08-06T03:11:07;0.40;;;0.40;;
4080;SDS011;2055;50.074;8.436;2022-08-06T03:13:35;0.40;;;0.40;;
4080;SDS011;2055;50.074;8.436;2022-08-06T03:16:03;0.60;;;0.50;;
4080;SDS011;2055;50.074;8.436;2022-08-06T03:18:30;0.40;;;0.40;;
4080;SDS011;2055;50.074;8.436;2022-08-06T03:20:59;0.40;;;0.40;;
4080;SDS011;2055;50.074;8.436;2022-08-06T03:23:26;0.40;;;0.40;;
4080;SDS011;2055;50.074;8.436;2022-08-06T03:25:55;0.40;;;0.40;;
4080;SDS011;2055;50.074;8.436;2022-08-06T03:28:21;0.40;;;0.40;;
4080;SDS011;2055;50.074;8.436;2022-08-06T03:30:48;0.40;;;0.40;;
4080;SDS011;2055;50.074;8.436;2022-08-06T03:33:15;0.60;;;0.50;;
4080;SDS011;2055;50.074;8.436;2022-08-06T03:35:43;0.40;;;0.40;;
4080;SDS011;2055;50.074;8.436;2022-08-06T03:38:10;0.40;;;0.40;;
4080;SDS011;2055;50.074;8.436;2022-08-06T03:40:37;0.65;;;0.57;;
4080;SDS011;2055;50.074;8.436;2022-08-06T03:43:07;0.40;;;0.40;;
4080;SDS011;2055;50.074;8.436;2022-08-06T03:45:35;0.40;;;0.40;;
4080;SDS011;2055;50.074;8.436;2022-08-06T03:48:03;0.50;;;0.45;;
4080;SDS011;2055;50.074;8.436;2022-08-06T03:50:33;0.90;;;0.80;;
4080;SDS011;2055;50.074;8.436;2022-08-06T03:53:08;0.60;;;0.50;;
4080;SDS011;2055;50.074;8.436;2022-08-06T03:55:45;0.40;;;0.40;;
4080;SDS011;2055;50.074;8.436;2022-08-06T03:58:13;0.88;;;0.70;;
4080;SDS011;2055;50.074;8.436;2022-08-06T04:00:49;0.40;;;0.40;;
4080;SDS011;2055;50.074;8.436;2022-08-06T04:03:18;0.60;;;0.50;;
4080;SDS011;2055;50.074;8.436;2022-08-06T04:05:45;0.40;;;0.40;;
4080;SDS011;2055;50.074;8.436;2022-08-06T04:08:12;0.40;;;0.40;;
4080;SDS011;2055;50.074;8.436;2022-08-06T04:10:39;5.50;;;0.70;;
4080;SDS011;2055;50.074;8.436;2022-08-06T04:13:08;0.40;;;0.40;;
4080;SDS011;2055;50.074;8.436;2022-08-06T04:15:38;0.60;;;0.50;;
4080;SDS011;2055;50.074;8.436;2022-08-06T04:18:07;0.40;;;0.40;;
4080;SDS011;2055;50.074;8.436;2022-08-06T04:20:34;0.40;;;0.40;;
4080;SDS011;2055;50.074;8.436;2022-08-06T04:23:01;0.40;;;0.40;;
4080;SDS011;2055;50.074;8.436;2022-08-06T04:25:28;0.40;;;0.40;;
4080;SDS011;2055;50.074;8.436;2022-08-06T04:27:59;0.40;;;0.40;;
4080;SDS011;2055;50.074;8.436;2022-08-06T04:30:26;0.65;;;0.55;;
4080;SDS011;2055;50.074;8.436;2022-08-06T04:32:53;0.88;;;0.80;;
4080;SDS011;2055;50.074;8.436;2022-08-06T04:35:19;0.60;;;0.50;;
4080;SDS011;2055;50.074;8.436;2022-08-06T04:37:47;0.40;;;0.40;;
4080;SDS011;2055;50.074;8.436;2022-08-06T04:40:13;0.40;;;0.40;;
4080;SDS011;2055;50.074;8.436;2022-08-06T04:42:39;0.40;;;0.40;;
4080;SDS011;2055;50.074;8.436;2022-08-06T04:45:06;0.40;;;0.40;;
4080;SDS011;2055;50.074;8.436;2022-08-06T04:47:33;0.70;;;0.60;;
4080;SDS011;2055;50.074;8.436;2022-08-06T04:50:00;0.60;;;0.50;;
4080;SDS011;2055;50.074;8.436;2022-08-06T04:52:26;0.40;;;0.40;;
4080;SDS011;2055;50.074;8.436;2022-08-06T04:54:53;0.40;;;0.40;;
4080;SDS011;2055;50.074;8.436;2022-08-06T04:57:18;0.70;;;0.60;;
4080;SDS011;2055;50.074;8.436;2022-08-06T04:59:44;0.60;;;0.50;;
4080;SDS011;2055;50.074;8.436;2022-08-06T05:02:10;0.70;;;0.70;;
4080;SDS011;2055;50.074;8.436;2022-08-06T05:04:36;0.60;;;0.50;;
4080;SDS011;2055;50.074;8.436;2022-08-06T05:07:35;1.58;;;1.25;;
4080;SDS011;2055;50.074;8.436;2022-08-06T05:09:55;1.90;;;1.80;;
4080;SDS011;2055;50.074;8.436;2022-08-06T05:17:37;0.70;;;0.63;;
4080;SDS011;2055;50.074;8.436;2022-08-06T05:20:16;0.40;;;0.40;;
4080;SDS011;2055;50.074;8.436;2022-08-06T05:22:44;0.60;;;0.50;;
4080;SDS011;2055;50.074;8.436;2022-08-06T05:25:12;0.40;;;0.40;;
4080;SDS011;2055;50.074;8.436;2022-08-06T05:27:39;0.40;;;0.40;;
4080;SDS011;2055;50.074;8.436;2022-08-06T05:30:06;0.45;;;0.43;;
4080;SDS011;2055;50.074;8.436;2022-08-06T05:32:42;0.60;;;0.50;;
4080;SDS011;2055;50.074;8.436;2022-08-06T05:35:13;0.40;;;0.40;;
4080;SDS011;2055;50.074;8.436;2022-08-06T05:37:39;2.17;;;1.47;;
4080;SDS011;2055;50.074;8.436;2022-08-06T05:40:05;0.80;;;0.70;;
4080;SDS011;2055;50.074;8.436;2022-08-06T05:42:32;0.40;;;0.40;;
4080;SDS011;2055;50.074;8.436;2022-08-06T05:44:58;0.40;;;0.40;;
4080;SDS011;2055;50.074;8.436;2022-08-06T05:47:24;1.57;;;0.70;;
4080;SDS011;2055;50.074;8.436;2022-08-06T05:50:14;0.60;;;0.50;;
4080;SDS011;2055;50.074;8.436;2022-08-06T05:53:00;0.60;;;0.50;;
4080;SDS011;2055;50.074;8.436;2022-08-06T05:55:52;0.75;;;0.65;;
4080;SDS011;2055;50.074;8.436;2022-08-06T05:58:28;0.60;;;0.50;;
4080;SDS011;2055;50.074;8.436;2022-08-06T06:01:00;0.40;;;0.40;;
4080;SDS011;2055;50.074;8.436;2022-08-06T06:03:28;1.40;;;1.30;;
4080;SDS011;2055;50.074;8.436;2022-08-06T06:05:54;0.60;;;0.60;;
4080;SDS011;2055;50.074;8.436;2022-08-06T06:08:22;0.50;;;0.50;;
4080;SDS011;2055;50.074;8.436;2022-08-06T06:10:48;0.73;;;0.70;;
4080;SDS011;2055;50.074;8.436;2022-08-06T06:13:15;0.40;;;0.40;;
4080;SDS011;2055;50.074;8.436;2022-08-06T06:15:43;0.90;;;0.87;;
4080;SDS011;2055;50.074;8.436;2022-08-06T06:26:48;0.60;;;0.50;;
4080;SDS011;2055;50.074;8.436;2022-08-06T06:32:18;0.40;;;0.40;;
4080;SDS011;2055;50.074;8.436;2022-08-06T06:40:47;0.60;;;0.50;;
4080;SDS011;2055;50.074;8.436;2022-08-06T06:46:13;0.40;;;0.40;;
4080;SDS011;2055;50.074;8.436;2022-08-06T06:48:47;0.60;;;0.50;;
4080;SDS011;2055;50.074;8.436;2022-08-06T06:51:31;0.70;;;0.70;;
4080;SDS011;2055;50.074;8.436;2022-08-06T06:54:05;0.40;;;0.40;;
4080;SDS011;2055;50.074;8.436;2022-08-06T06:56:35;0.40;;;0.40;;
4080;SDS011;2055;50.074;8.436;2022-08-06T07:01:41;0.70;;;0.70;;
4080;SDS011;2055;50.074;8.436;2022-08-06T07:04:09;0.40;;;0.40;;
4080;SDS011;2055;50.074;8.436;2022-08-06T07:06:38;0.40;;;0.40;;
4080;SDS011;2055;50.074;8.436;2022-08-06T07:09:05;0.90;;;0.53;;
4080;SDS011;2055;50.074;8.436;2022-08-06T07:11:34;2.10;;;1.77;;
4080;SDS011;2055;50.074;8.436;2022-08-06T07:14:01;0.47;;;0.43;;
4080;SDS011;2055;50.074;8.436;2022-08-06T07:16:28;0.50;;;0.50;;
4080;SDS011;2055;50.074;8.436;2022-08-06T07:18:56;0.40;;;0.40;;
4080;SDS011;2055;50.074;8.436;2022-08-06T07:21:26;0.50;;;0.50;;
4080;SDS011;2055;50.074;8.436;2022-08-06T07:23:53;0.60;;;0.50;;
4080;SDS011;2055;50.074;8.436;2022-08-06T07:26:21;1.00;;;0.90;;
4080;SDS011;2055;50.074;8.436;2022-08-06T07:28:51;0.67;;;0.60;;
4080;SDS011;2055;50.074;8.436;2022-08-06T07:31:18;0.90;;;0.80;;
4080;SDS011;2055;50.074;8.436;2022-08-06T07:33:48;4.80;;;1.30;;
4080;SDS011;2055;50.074;8.436;2022-08-06T07:36:16;0.60;;;0.50;;
4080;SDS011;2055;50.074;8.436;2022-08-06T07:38:45;0.40;;;0.40;;
4080;SDS011;2055;50.074;8.436;2022-08-06T07:41:13;0.60;;;0.50;;
4080;SDS011;2055;50.074;8.436;2022-08-06T07:43:54;0.60;;;0.53;;
4080;SDS011;2055;50.074;8.436;2022-08-06T07:46:25;0.50;;;0.40;;
4080;SDS011;2055;50.074;8.436;2022-08-06T07:48:54;0.40;;;0.40;;
4080;SDS011;2055;50.074;8.436;2022-08-06T07:51:27;0.70;;;0.60;;
4080;SDS011;2055;50.074;8.436;2022-08-06T07:53:55;1.30;;;0.53;;
4080;SDS011;2055;50.074;8.436;2022-08-06T07:56:21;0.87;;;0.60;;
4080;SDS011;2055;50.074;8.436;2022-08-06T07:58:49;0.40;;;0.40;;
4080;SDS011;2055;50.074;8.436;2022-08-06T08:01:14;0.60;;;0.50;;
4080;SDS011;2055;50.074;8.436;2022-08-06T08:03:41;0.70;;;0.60;;
4080;SDS011;2055;50.074;8.436;2022-08-06T08:06:26;0.73;;;0.63;;
4080;SDS011;2055;50.074;8.436;2022-08-06T08:09:00;0.60;;;0.50;;
4080;SDS011;2055;50.074;8.436;2022-08-06T08:11:28;0.60;;;0.50;;
4080;SDS011;2055;50.074;8.436;2022-08-06T08:13:55;0.80;;;0.70;;
4080;SDS011;2055;50.074;8.436;2022-08-06T08:16:23;0.77;;;0.67;;
4080;SDS011;2055;50.074;8.436;2022-08-06T08:18:51;0.60;;;0.50;;
4080;SDS011;2055;50.074;8.436;2022-08-06T08:21:17;0.40;;;0.40;;
4080;SDS011;2055;50.074;8.436;2022-08-06T08:23:44;0.80;;;0.70;;
4080;SDS011;2055;50.074;8.436;2022-08-06T08:26:11;0.50;;;0.50;;
4080;SDS011;2055;50.074;8.436;2022-08-06T08:28:36;0.50;;;0.50;;
4080;SDS011;2055;50.074;8.436;2022-08-06T08:31:02;4.53;;;0.90;;
4080;SDS011;2055;50.074;8.436;2022-08-06T08:33:28;0.80;;;0.80;;
4080;SDS011;2055;50.074;8.436;2022-08-06T08:35:55;0.60;;;0.50;;
4080;SDS011;2055;50.074;8.436;2022-08-06T08:38:23;0.80;;;0.70;;
4080;SDS011;2055;50.074;8.436;2022-08-06T08:40:50;0.50;;;0.50;;
4080;SDS011;2055;50.074;8.436;2022-08-06T08:43:23;0.60;;;0.50;;
4080;SDS011;2055;50.074;8.436;2022-08-06T08:45:50;1.00;;;0.83;;
4080;SDS011;2055;50.074;8.436;2022-08-06T08:48:20;3.13;;;0.83;;
4080;SDS011;2055;50.074;8.436;2022-08-06T08:50:54;1.00;;;0.70;;
4080;SDS011;2055;50.074;8.436;2022-08-06T08:53:29;1.13;;;0.70;;
4080;SDS011;2055;50.074;8.436;2022-08-06T08:56:01;0.60;;;0.50;;
4080;SDS011;2055;50.074;8.436;2022-08-06T08:58:27;1.90;;;0.90;;
4080;SDS011;2055;50.074;8.436;2022-08-06T09:00:56;0.60;;;0.50;;
4080;SDS011;2055;50.074;8.436;2022-08-06T09:03:27;0.70;;;0.60;;
4080;SDS011;2055;50.074;8.436;2022-08-06T09:05:53;0.70;;;0.60;;
4080;SDS011;2055;50.074;8.436;2022-08-06T09:08:19;0.70;;;0.60;;
4080;SDS011;2055;50.074;8.436;2022-08-06T09:10:45;0.60;;;0.50;;
4080;SDS011;2055;50.074;8.436;2022-08-06T09:13:11;0.80;;;0.70;;
4080;SDS011;2055;50.074;8.436;2022-08-06T09:15:37;0.93;;;0.83;;
4080;SDS011;2055;50.074;8.436;2022-08-06T09:18:02;0.70;;;0.60;;
4080;SDS011;2055;50.074;8.436;2022-08-06T09:20:29;0.60;;;0.60;;
4080;SDS011;2055;50.074;8.436;2022-08-06T09:22:55;0.87;;;0.77;;
4080;SDS011;2055;50.074;8.436;2022-08-06T09:25:33;0.60;;;0.50;;
4080;SDS011;2055;50.074;8.436;2022-08-06T09:28:08;0.67;;;0.60;;
4080;SDS011;2055;50.074;8.436;2022-08-06T09:30:58;0.40;;;0.40;;
4080;SDS011;2055;50.074;8.436;2022-08-06T09:33:25;0.70;;;0.60;;
4080;SDS011;2055;50.074;8.436;2022-08-06T09:36:01;0.60;;;0.50;;
4080;SDS011;2055;50.074;8.436;2022-08-06T09:38:29;0.70;;;0.60;;
4080;SDS011;2055;50.074;8.436;2022-08-06T09:41:07;0.60;;;0.50;;
4080;SDS011;2055;50.074;8.436;2022-08-06T09:43:36;0.70;;;0.60;;
4080;SDS011;2055;50.074;8.436;2022-08-06T09:46:03;0.70;;;0.60;;
4080;SDS011;2055;50.074;8.436;2022-08-06T09:48:29;0.80;;;0.70;;
4080;SDS011;2055;50.074;8.436;2022-08-06T09:50:55;0.70;;;0.60;;
4080;SDS011;2055;50.074;8.436;2022-08-06T09:53:21;1.03;;;0.93;;
4080;SDS011;2055;50.074;8.436;2022-08-06T09:55:48;0.70;;;0.60;;
4080;SDS011;2055;50.074;8.436;2022-08-06T09:58:35;1.10;;;1.00;;
4080;SDS011;2055;50.074;8.436;2022-08-06T10:01:14;0.70;;;0.60;;
4080;SDS011;2055;50.074;8.436;2022-08-06T10:03:44;0.70;;;0.60;;
4080;SDS011;2055;50.074;8.436;2022-08-06T10:06:12;1.87;;;0.90;;
4080;SDS011;2055;50.074;8.436;2022-08-06T10:08:39;0.70;;;0.60;;
4080;SDS011;2055;50.074;8.436;2022-08-06T10:11:06;0.90;;;0.80;;
4080;SDS011;2055;50.074;8.436;2022-08-06T10:13:32;0.80;;;0.70;;
4080;SDS011;2055;50.074;8.436;2022-08-06T10:15:59;0.70;;;0.60;;
4080;SDS011;2055;50.074;8.436;2022-08-06T10:18:40;0.87;;;0.77;;
4080;SDS011;2055;50.074;8.436;2022-08-06T10:21:14;0.80;;;0.70;;
4080;SDS011;2055;50.074;8.436;2022-08-06T10:23:43;0.70;;;0.60;;
4080;SDS011;2055;50.074;8.436;2022-08-06T10:26:12;0.97;;;0.90;;
4080;SDS011;2055;50.074;8.436;2022-08-06T10:28:43;3.03;;;2.23;;
4080;SDS011;2055;50.074;8.436;2022-08-06T10:31:11;0.90;;;0.80;;
4080;SDS011;2055;50.074;8.436;2022-08-06T10:33:50;0.87;;;0.77;;
4080;SDS011;2055;50.074;8.436;2022-08-06T10:36:26;1.10;;;1.00;;
4080;SDS011;2055;50.074;8.436;2022-08-06T10:38:59;0.80;;;0.70;;
4080;SDS011;2055;50.074;8.436;2022-08-06T10:41:25;0.60;;;0.50;;
4080;SDS011;2055;50.074;8.436;2022-08-06T10:43:52;0.73;;;0.63;;
4080;SDS011;2055;50.074;8.436;2022-08-06T10:46:20;0.73;;;0.63;;
4080;SDS011;2055;50.074;8.436;2022-08-06T10:48:46;1.10;;;1.00;;
4080;SDS011;2055;50.074;8.436;2022-08-06T10:51:13;0.90;;;0.80;;
4080;SDS011;2055;50.074;8.436;2022-08-06T10:53:41;0.80;;;0.70;;
4080;SDS011;2055;50.074;8.436;2022-08-06T10:56:08;1.30;;;1.20;;
4080;SDS011;2055;50.074;8.436;2022-08-06T10:58:37;7.90;;;1.10;;
4080;SDS011;2055;50.074;8.436;2022-08-06T11:01:27;0.90;;;0.80;;
4080;SDS011;2055;50.074;8.436;2022-08-06T11:15:19;0.90;;;0.80;;
4080;SDS011;2055;50.074;8.436;2022-08-06T11:17:50;0.83;;;0.73;;
4080;SDS011;2055;50.074;8.436;2022-08-06T11:22:59;0.87;;;0.77;;
4080;SDS011;2055;50.074;8.436;2022-08-06T11:25:59;0.87;;;0.77;;
4080;SDS011;2055;50.074;8.436;2022-08-06T11:30:56;0.90;;;0.80;;
4080;SDS011;2055;50.074;8.436;2022-08-06T11:35:58;1.00;;;0.90;;
4080;SDS011;2055;50.074;8.436;2022-08-06T11:43:46;1.30;;;1.20;;
4080;SDS011;2055;50.074;8.436;2022-08-06T11:46:31;1.20;;;1.20;;
4080;SDS011;2055;50.074;8.436;2022-08-06T11:51:40;1.10;;;1.00;;
4080;SDS011;2055;50.074;8.436;2022-08-06T11:54:14;0.87;;;0.77;;
4080;SDS011;2055;50.074;8.436;2022-08-06T12:02:15;1.00;;;0.90;;
4080;SDS011;2055;50.074;8.436;2022-08-06T12:05:01;1.00;;;0.90;;
4080;SDS011;2055;50.074;8.436;2022-08-06T12:07:28;1.20;;;1.10;;
4080;SDS011;2055;50.074;8.436;2022-08-06T12:12:34;1.07;;;1.07;;
4080;SDS011;2055;50.074;8.436;2022-08-06T12:20:33;1.30;;;1.20;;
4080;SDS011;2055;50.074;8.436;2022-08-06T12:23:02;1.60;;;1.50;;
4080;SDS011;2055;50.074;8.436;2022-08-06T12:25:36;1.33;;;1.23;;
4080;SDS011;2055;50.074;8.436;2022-08-06T12:28:08;1.50;;;1.40;;
4080;SDS011;2055;50.074;8.436;2022-08-06T12:30:48;1.67;;;1.53;;
4080;SDS011;2055;50.074;8.436;2022-08-06T12:33:16;1.80;;;1.70;;
4080;SDS011;2055;50.074;8.436;2022-08-06T12:35:55;1.30;;;1.20;;
4080;SDS011;2055;50.074;8.436;2022-08-06T12:38:26;1.63;;;1.53;;
4080;SDS011;2055;50.074;8.436;2022-08-06T12:40:57;1.27;;;1.17;;
4080;SDS011;2055;50.074;8.436;2022-08-06T12:43:27;1.60;;;1.50;;
4080;SDS011;2055;50.074;8.436;2022-08-06T12:45:57;1.37;;;1.27;;
4080;SDS011;2055;50.074;8.436;2022-08-06T12:48:34;1.43;;;1.33;;
4080;SDS011;2055;50.074;8.436;2022-08-06T12:51:08;1.40;;;1.30;;
4080;SDS011;2055;50.074;8.436;2022-08-06T12:53:40;1.27;;;1.17;;
4080;SDS011;2055;50.074;8.436;2022-08-06T12:56:13;1.57;;;1.47;;
4080;SDS011;2055;50.074;8.436;2022-08-06T12:58:43;1.30;;;1.20;;
4080;SDS011;2055;50.074;8.436;2022-08-06T13:01:18;1.23;;;1.13;;
4080;SDS011;2055;50.074;8.436;2022-08-06T13:03:47;1.33;;;1.23;;
4080;SDS011;2055;50.074;8.436;2022-08-06T13:06:16;1.30;;;1.20;;
4080;SDS011;2055;50.074;8.436;2022-08-06T13:08:45;1.30;;;1.20;;
4080;SDS011;2055;50.074;8.436;2022-08-06T13:11:11;1.40;;;1.30;;
4080;SDS011;2055;50.074;8.436;2022-08-06T13:13:38;1.30;;;1.20;;
4080;SDS011;2055;50.074;8.436;2022-08-06T13:16:08;1.50;;;1.40;;
4080;SDS011;2055;50.074;8.436;2022-08-06T13:18:36;1.53;;;1.43;;
4080;SDS011;2055;50.074;8.436;2022-08-06T13:21:21;1.40;;;1.30;;
4080;SDS011;2055;50.074;8.436;2022-08-06T13:23:49;1.70;;;1.60;;
4080;SDS011;2055;50.074;8.436;2022-08-06T13:26:18;1.50;;;1.40;;
4080;SDS011;2055;50.074;8.436;2022-08-06T13:31:32;1.23;;;1.13;;
4080;SDS011;2055;50.074;8.436;2022-08-06T13:34:02;3.87;;;1.73;;
4080;SDS011;2055;50.074;8.436;2022-08-06T13:36:30;1.60;;;1.50;;
4080;SDS011;2055;50.074;8.436;2022-08-06T13:38:57;1.60;;;1.50;;
4080;SDS011;2055;50.074;8.436;2022-08-06T13:41:28;1.33;;;1.23;;
4080;SDS011;2055;50.074;8.436;2022-08-06T13:43:57;1.93;;;1.83;;
4080;SDS011;2055;50.074;8.436;2022-08-06T13:46:24;1.40;;;1.30;;
4080;SDS011;2055;50.074;8.436;2022-08-06T13:48:52;1.50;;;1.40;;
4080;SDS011;2055;50.074;8.436;2022-08-06T13:51:19;1.30;;;1.20;;
4080;SDS011;2055;50.074;8.436;2022-08-06T13:53:47;1.30;;;1.20;;
4080;SDS011;2055;50.074;8.436;2022-08-06T13:56:13;1.60;;;1.50;;
4080;SDS011;2055;50.074;8.436;2022-08-06T13:58:39;1.60;;;1.50;;
4080;SDS011;2055;50.074;8.436;2022-08-06T14:01:06;1.40;;;1.30;;
4080;SDS011;2055;50.074;8.436;2022-08-06T14:03:31;1.20;;;1.10;;
4080;SDS011;2055;50.074;8.436;2022-08-06T14:05:57;1.93;;;1.83;;
4080;SDS011;2055;50.074;8.436;2022-08-06T14:08:23;1.40;;;1.30;;
4080;SDS011;2055;50.074;8.436;2022-08-06T14:10:48;1.90;;;1.80;;
4080;SDS011;2055;50.074;8.436;2022-08-06T14:13:14;1.23;;;1.13;;
4080;SDS011;2055;50.074;8.436;2022-08-06T14:15:47;2.07;;;1.93;;
4080;SDS011;2055;50.074;8.436;2022-08-06T14:18:14;2.20;;;2.00;;
4080;SDS011;2055;50.074;8.436;2022-08-06T14:20:41;1.60;;;1.50;;
4080;SDS011;2055;50.074;8.436;2022-08-06T14:23:07;1.50;;;1.40;;
4080;SDS011;2055;50.074;8.436;2022-08-06T14:25:33;1.70;;;1.60;;
4080;SDS011;2055;50.074;8.436;2022-08-06T14:27:59;1.93;;;1.83;;
4080;SDS011;2055;50.074;8.436;2022-08-06T14:30:25;1.83;;;1.73;;
4080;SDS011;2055;50.074;8.436;2022-08-06T14:32:52;1.40;;;1.30;;
4080;SDS011;2055;50.074;8.436;2022-08-06T14:35:18;1.67;;;1.57;;
4080;SDS011;2055;50.074;8.436;2022-08-06T14:37:44;1.40;;;1.30;;
4080;SDS011;2055;50.074;8.436;2022-08-06T14:40:10;2.73;;;1.63;;
4080;SDS011;2055;50.074;8.436;2022-08-06T14:42:37;2.10;;;1.43;;
4080;SDS011;2055;50.074;8.436;2022-08-06T14:45:22;1.30;;;1.20;;
4080;SDS011;2055;50.074;8.436;2022-08-06T14:47:47;1.33;;;1.23;;
4080;SDS011;2055;50.074;8.436;2022-08-06T14:50:13;1.30;;;1.20;;
4080;SDS011;2055;50.074;8.436;2022-08-06T14:52:39;1.30;;;1.20;;
4080;SDS011;2055;50.074;8.436;2022-08-06T14:55:08;1.40;;;1.30;;
4080;SDS011;2055;50.074;8.436;2022-08-06T14:57:34;1.50;;;1.40;;
4080;SDS011;2055;50.074;8.436;2022-08-06T15:00:03;1.10;;;1.00;;
4080;SDS011;2055;50.074;8.436;2022-08-06T15:02:29;1.30;;;1.20;;
4080;SDS011;2055;50.074;8.436;2022-08-06T15:04:55;1.60;;;1.50;;
4080;SDS011;2055;50.074;8.436;2022-08-06T15:07:21;2.20;;;1.20;;
4080;SDS011;2055;50.074;8.436;2022-08-06T15:09:47;1.23;;;1.13;;
4080;SDS011;2055;50.074;8.436;2022-08-06T15:12:13;1.10;;;1.00;;
4080;SDS011;2055;50.074;8.436;2022-08-06T15:14:40;1.30;;;1.20;;
4080;SDS011;2055;50.074;8.436;2022-08-06T15:17:05;3.43;;;1.20;;
4080;SDS011;2055;50.074;8.436;2022-08-06T15:19:31;11.33;;;1.37;;
4080;SDS011;2055;50.074;8.436;2022-08-06T15:21:57;1.43;;;1.33;;
4080;SDS011;2055;50.074;8.436;2022-08-06T15:24:23;1.20;;;1.10;;
4080;SDS011;2055;50.074;8.436;2022-08-06T15:26:48;1.10;;;1.00;;
4080;SDS011;2055;50.074;8.436;2022-08-06T15:29:14;1.10;;;1.00;;
4080;SDS011;2055;50.074;8.436;2022-08-06T15:31:40;1.40;;;1.30;;
4080;SDS011;2055;50.074;8.436;2022-08-06T15:34:06;1.13;;;1.03;;
4080;SDS011;2055;50.074;8.436;2022-08-06T15:36:32;1.30;;;1.20;;
4080;SDS011;2055;50.074;8.436;2022-08-06T15:38:58;1.43;;;1.33;;
4080;SDS011;2055;50.074;8.436;2022-08-06T15:41:24;1.10;;;1.00;;
4080;SDS011;2055;50.074;8.436;2022-08-06T15:43:52;1.30;;;1.20;;
4080;SDS011;2055;50.074;8.436;2022-08-06T15:46:18;1.10;;;1.00;;
4080;SDS011;2055;50.074;8.436;2022-08-06T15:48:45;0.80;;;0.70;;
4080;SDS011;2055;50.074;8.436;2022-08-06T15:51:11;1.00;;;0.90;;
4080;SDS011;2055;50.074;8.436;2022-08-06T15:53:37;1.10;;;1.00;;
4080;SDS011;2055;50.074;8.436;2022-08-06T15:56:03;1.07;;;0.97;;
4080;SDS011;2055;50.074;8.436;2022-08-06T15:58:28;1.00;;;0.90;;
4080;SDS011;2055;50.074;8.436;2022-08-06T16:00:54;1.00;;;0.90;;
4080;SDS011;2055;50.074;8.436;2022-08-06T16:03:20;1.10;;;1.00;;
4080;SDS011;2055;50.074;8.436;2022-08-06T16:05:45;1.13;;;1.03;;
4080;SDS011;2055;50.074;8.436;2022-08-06T16:08:11;1.20;;;1.10;;
4080;SDS011;2055;50.074;8.436;2022-08-06T16:10:46;0.90;;;0.80;;
4080;SDS011;2055;50.074;8.436;2022-08-06T16:13:14;3.13;;;1.17;;
4080;SDS011;2055;50.074;8.436;2022-08-06T16:15:46;0.83;;;0.73;;
4080;SDS011;2055;50.074;8.436;2022-08-06T16:18:14;1.03;;;1.00;;
4080;SDS011;2055;50.074;8.436;2022-08-06T16:20:41;1.63;;;0.90;;
4080;SDS011;2055;50.074;8.436;2022-08-06T16:23:08;0.80;;;0.70;;
4080;SDS011;2055;50.074;8.436;2022-08-06T16:25:35;0.97;;;0.87;;
4080;SDS011;2055;50.074;8.436;2022-08-06T16:28:01;0.73;;;0.63;;
4080;SDS011;2055;50.074;8.436;2022-08-06T16:30:27;0.80;;;0.70;;
4080;SDS011;2055;50.074;8.436;2022-08-06T16:32:52;1.27;;;1.17;;
4080;SDS011;2055;50.074;8.436;2022-08-06T16:35:18;1.03;;;1.00;;
4080;SDS011;2055;50.074;8.436;2022-08-06T16:37:44;1.00;;;0.90;;
4080;SDS011;2055;50.074;8.436;2022-08-06T16:40:09;0.80;;;0.70;;
4080;SDS011;2055;50.074;8.436;2022-08-06T16:42:35;0.80;;;0.70;;
4080;SDS011;2055;50.074;8.436;2022-08-06T16:45:01;1.00;;;0.90;;
4080;SDS011;2055;50.074;8.436;2022-08-06T16:47:28;0.80;;;0.70;;